Time;durP1;ratioP1;P1;durP2;ratioP2;P2;SDS_P1;SDS_P2;PMS_P1;PMS_P2;Temp;Humidity;BMP_temperature;BMP_pressure;BME280_temperature;BME280_humidity;BME280_pressure;Samples;Min_cycle;Max_cycle;Signal;HPM_P1;HPM_P2
2022/04/10 00:01:53;;;;;;;3.90;1.77;;;;;;;4.84;72.46;99256.59;4355012;32;35093;-79
2022/04/10 00:04:39;;;;;;;4.07;2.08;;;;;;;4.60;73.18;99261.87;4360187;32;35639;-79
2022/04/10 00:07:25;;;;;;;3.70;2.03;;;;;;;4.71;73.21;99259.94;4342775;32;34949;-79
2022/04/10 00:10:11;;;;;;;4.87;2.60;;;;;;;4.35;75.27;99253.91;4345477;32;34594;-80
2022/04/10 00:12:58;;;;;;;3.75;2.20;;;;;;;4.29;76.40;99243.06;4350276;32;35101;-79
2022/04/10 00:15:44;;;;;;;4.12;2.35;;;;;;;4.49;75.37;99242.12;4359848;32;34188;-79
2022/04/10 00:18:31;;;;;;;3.62;2.25;;;;;;;4.27;75.96;99247.97;4363627;32;34803;-79
2022/04/10 00:21:18;;;;;;;6.95;2.47;;;;;;;4.38;75.31;99237.06;4345094;33;33117;-79
2022/04/10 00:24:04;;;;;;;4.70;2.45;;;;;;;4.54;74.81;99235.06;4344040;32;34311;-79
2022/04/10 00:26:50;;;;;;;3.85;1.77;;;;;;;4.38;75.29;99239.78;4346397;32;34623;-80
2022/04/10 00:29:37;;;;;;;3.47;1.98;;;;;;;4.43;74.09;99237.84;4348654;32;35989;-79
2022/04/10 00:32:27;;;;;;;3.72;2.00;;;;;;;4.05;76.14;99247.53;4355448;32;34670;-80
2022/04/10 00:35:13;;;;;;;5.05;2.12;;;;;;;3.88;76.95;99253.28;4363728;32;34137;-79
2022/04/10 00:38:00;;;;;;;5.32;2.67;;;;;;;3.85;77.87;99251.12;4372636;32;34646;-79
2022/04/10 00:40:46;;;;;;;4.53;2.28;;;;;;;3.97;78.73;99254.31;4375495;32;35900;-79
2022/04/10 00:43:34;;;;;;;4.65;2.60;;;;;;;3.98;78.72;99250.53;4370926;32;34690;-79
2022/04/10 00:46:20;;;;;;;4.70;2.40;;;;;;;3.79;79.78;99250.34;4367952;32;35634;-80
2022/04/10 00:49:07;;;;;;;5.32;2.87;;;;;;;3.92;78.81;99257.06;4364054;32;34337;-80
2022/04/10 00:51:53;;;;;;;4.40;2.25;;;;;;;3.83;79.77;99248.69;4348146;32;34875;-79
2022/04/10 00:54:40;;;;;;;4.55;2.28;;;;;;;3.81;79.65;99260.88;4347825;32;35545;-80
2022/04/10 00:57:26;;;;;;;4.75;2.45;;;;;;;3.96;79.76;99268.19;4371377;32;33937;-79
2022/04/10 01:00:14;;;;;;;5.60;2.85;;;;;;;3.76;80.75;99271.75;4373060;32;34439;-80
2022/04/10 01:03:01;;;;;;;6.28;2.72;;;;;;;3.77;80.96;99276.06;4353772;32;34766;-79
2022/04/10 01:05:47;;;;;;;5.70;2.90;;;;;;;3.54;82.34;99283.72;4368252;32;34558;-80
2022/04/10 01:08:33;;;;;;;5.55;2.72;;;;;;;3.62;82.26;99295.09;4362868;32;34176;-79
2022/04/10 01:11:20;;;;;;;6.72;3.05;;;;;;;3.76;81.61;99296.97;4352420;32;34548;-80
2022/04/10 01:14:08;;;;;;;5.87;3.10;;;;;;;3.56;83.00;99292.37;4368565;32;34899;-80
2022/04/10 01:16:55;;;;;;;4.40;2.80;;;;;;;3.95;81.76;99297.16;4368755;32;34578;-79
2022/04/10 01:19:42;;;;;;;4.97;2.92;;;;;;;3.77;80.71;99292.34;4350531;32;34154;-80
2022/04/10 01:22:35;;;;;;;5.12;2.70;;;;;;;3.47;83.80;99291.31;4363665;32;34703;-80
2022/04/10 01:25:22;;;;;;;5.65;2.50;;;;;;;3.54;82.98;99297.25;4351401;32;35053;-79
2022/04/10 01:28:12;;;;;;;4.50;3.08;;;;;;;3.26;84.40;99293.22;4345484;32;35398;-79
2022/04/10 01:30:58;;;;;;;6.12;2.83;;;;;;;3.26;84.91;99297.81;4366474;32;34267;-79
2022/04/10 01:33:45;;;;;;;4.18;2.70;;;;;;;3.21;84.96;99298.63;4358753;32;34619;-80
2022/04/10 01:36:32;;;;;;;5.53;2.92;;;;;;;3.30;85.06;99309.72;4368225;32;34928;-80
2022/04/10 01:39:18;;;;;;;5.70;3.08;;;;;;;3.31;85.96;99317.59;4354426;32;34389;-79
2022/04/10 01:42:06;;;;;;;5.37;3.17;;;;;;;2.99;88.10;99317.84;4358346;32;33698;-79
2022/04/10 01:44:53;;;;;;;6.20;2.92;;;;;;;3.18;87.28;99318.13;4360387;32;34677;-80
2022/04/10 01:47:39;;;;;;;6.25;2.95;;;;;;;3.29;86.61;99318.94;4370313;32;36011;-79
2022/04/10 01:50:28;;;;;;;5.30;3.00;;;;;;;2.89;87.78;99320.53;4364414;32;34660;-79
2022/04/10 01:53:14;;;;;;;5.15;2.72;;;;;;;2.89;87.63;99320.53;4360354;32;34022;-79
2022/04/10 01:56:02;;;;;;;4.43;2.85;;;;;;;3.04;87.76;99317.81;4362814;32;34325;-80
2022/04/10 01:58:49;;;;;;;4.30;2.60;;;;;;;2.78;87.43;99313.47;4364449;32;35673;-79
2022/04/10 02:01:35;;;;;;;6.00;3.05;;;;;;;2.68;89.00;99314.25;4356379;32;34198;-79
2022/04/10 02:04:22;;;;;;;6.22;2.90;;;;;;;2.80;88.37;99314.00;4349928;32;34218;-79
2022/04/10 02:07:09;;;;;;;6.22;2.80;;;;;;;2.73;89.00;99318.84;4360631;32;34461;-79
2022/04/10 02:09:56;;;;;;;5.03;2.95;;;;;;;2.84;88.77;99321.31;4365788;32;35634;-80
2022/04/10 02:12:42;;;;;;;6.07;2.90;;;;;;;2.93;88.83;99313.47;4352586;32;34496;-81
2022/04/10 02:15:28;;;;;;;5.80;3.15;;;;;;;2.57;89.62;99323.44;4364925;32;34997;-79
2022/04/10 02:18:16;;;;;;;4.62;2.50;;;;;;;2.52;89.46;99321.50;4360917;32;34296;-79
2022/04/10 02:21:03;;;;;;;6.07;2.80;;;;;;;2.69;88.80;99327.50;4357994;32;34489;-79
2022/04/10 02:23:49;;;;;;;5.72;2.90;;;;;;;2.39;90.61;99332.81;4372387;32;34098;-79
2022/04/10 02:26:36;;;;;;;5.43;2.87;;;;;;;2.46;89.32;99333.41;4367236;32;34918;-78
2022/04/10 02:29:22;;;;;;;4.57;2.78;;;;;;;2.36;90.60;99333.34;4363988;32;34532;-80
2022/04/10 02:32:09;;;;;;;4.87;2.65;;;;;;;2.27;90.92;99337.63;4374632;32;35125;-79
2022/04/10 02:34:55;;;;;;;4.97;2.85;;;;;;;2.27;90.96;99356.56;4361831;32;37091;-80
2022/04/10 02:37:45;;;;;;;5.00;3.00;;;;;;;2.20;91.60;99348.69;4366230;32;35573;-79
2022/04/10 02:40:31;;;;;;;5.37;2.72;;;;;;;2.27;91.58;99345.75;4359391;32;34438;-79
2022/04/10 02:43:19;;;;;;;5.05;2.70;;;;;;;2.45;90.48;99345.31;4350133;32;35000;-77
2022/04/10 02:46:06;;;;;;;5.37;2.90;;;;;;;2.31;90.38;99349.56;4338286;32;34631;-78
2022/04/10 02:48:53;;;;;;;5.30;3.00;;;;;;;2.38;90.75;99347.41;4360740;32;34267;-78
2022/04/10 02:51:39;;;;;;;5.28;2.70;;;;;;;2.18;91.71;99353.53;4373746;32;34122;-78
2022/04/10 02:54:26;;;;;;;5.65;2.42;;;;;;;2.27;91.48;99356.56;4374025;32;34613;-78
2022/04/10 02:57:30;;;;;;;6.05;3.58;;;;;;;2.40;89.86;99356.09;4350737;32;34617;-78
2022/04/10 03:00:36;;;;;;;4.65;2.62;;;;;;;2.62;89.25;99348.59;4353855;32;34192;-79
2022/04/10 03:03:41;;;;;;;6.20;2.92;;;;;;;2.48;88.50;99363.69;4353964;32;33853;-78
2022/04/10 03:06:46;;;;;;;5.25;3.10;;;;;;;2.65;88.64;99366.19;4361757;32;34938;-78
2022/04/10 03:09:51;;;;;;;7.55;3.45;;;;;;;2.21;90.55;99375.44;4365851;32;34553;-78
2022/04/10 03:12:57;;;;;;;6.50;3.70;;;;;;;1.99;92.21;99380.19;4365925;32;35061;-78
2022/04/10 03:16:02;;;;;;;5.53;3.22;;;;;;;2.01;92.28;99381.56;4372792;32;34542;-79
2022/04/10 03:19:08;;;;;;;7.15;3.53;;;;;;;1.98;92.78;99397.47;4360022;32;35006;-79
2022/04/10 03:22:13;;;;;;;5.75;3.30;;;;;;;1.92;93.75;99401.22;4366479;32;34727;-78
2022/04/10 03:25:19;;;;;;;7.03;3.28;;;;;;;2.06;92.76;99404.28;4363587;32;35144;-78
2022/04/10 03:28:24;;;;;;;4.30;2.95;;;;;;;2.43;92.18;99404.22;4365748;32;34641;-79
2022/04/10 03:31:31;;;;;;;5.60;2.92;;;;;;;1.91;93.79;99413.13;4359299;32;34629;-78
2022/04/10 03:34:36;;;;;;;7.18;3.50;;;;;;;2.07;93.79;99400.50;4344636;32;34140;-79
2022/04/10 03:37:43;;;;;;;6.55;3.50;;;;;;;2.01;93.80;99416.69;4360181;32;34145;-79
2022/04/10 03:40:48;;;;;;;5.25;2.87;;;;;;;2.35;92.30;99418.25;4360122;32;34639;-79
2022/04/10 03:43:55;;;;;;;4.97;2.97;;;;;;;2.21;92.38;99418.69;4359435;32;35061;-79
2022/04/10 03:47:01;;;;;;;5.50;3.30;;;;;;;2.25;92.08;99417.13;4358512;32;34364;-79
2022/04/10 03:50:07;;;;;;;8.10;3.60;;;;;;;1.90;93.25;99416.88;4366673;32;33834;-78
2022/04/10 03:53:13;;;;;;;7.00;3.03;;;;;;;2.26;92.30;99428.75;4359828;32;35536;-79
2022/04/10 03:56:18;;;;;;;5.37;3.15;;;;;;;1.95;93.40;99425.84;4357426;32;34920;-79
2022/04/10 03:59:24;;;;;;;5.55;3.15;;;;;;;2.02;93.35;99431.84;4366025;32;34584;-78
2022/04/10 04:02:29;;;;;;;5.93;3.25;;;;;;;2.13;93.25;99440.81;4372441;32;35121;-78
2022/04/10 04:05:36;;;;;;;6.12;3.47;;;;;;;2.09;92.88;99444.31;4349230;32;34225;-78
2022/04/10 04:08:42;;;;;;;6.28;3.10;;;;;;;2.27;91.58;99452.00;4357906;32;34975;-78
2022/04/10 04:11:48;;;;;;;6.85;3.55;;;;;;;2.53;90.69;99450.25;4365800;32;34496;-78
2022/04/10 04:14:53;;;;;;;6.65;3.80;;;;;;;1.98;93.11;99451.53;4371106;32;34254;-77
2022/04/10 04:17:58;;;;;;;6.53;3.42;;;;;;;2.03;93.47;99454.28;4365490;32;35096;-79
2022/04/10 04:21:02;;;;;;;9.45;3.80;;;;;;;2.00;93.57;99454.78;4364064;32;34717;-79
2022/04/10 04:24:12;;;;;;;6.47;3.33;;;;;;;2.02;93.00;99463.44;4350561;32;35484;-78
2022/04/10 04:27:17;;;;;;;6.50;3.45;;;;;;;2.27;93.35;99453.88;4371801;32;35072;-79
2022/04/10 04:30:22;;;;;;;7.65;3.47;;;;;;;2.09;93.95;99461.34;4364397;32;34639;-78
2022/04/10 04:33:28;;;;;;;6.90;3.62;;;;;;;2.27;92.87;99453.88;4362655;32;35040;-78
2022/04/10 04:36:34;;;;;;;7.65;3.95;;;;;;;2.20;92.89;99459.53;4367089;32;34149;-78
2022/04/10 04:39:40;;;;;;;6.53;3.72;;;;;;;2.24;93.11;99472.25;4370413;32;34195;-79
2022/04/10 04:42:45;;;;;;;7.45;3.70;;;;;;;2.42;92.13;99481.00;4359316;32;35552;-79
2022/04/10 04:45:50;;;;;;;8.07;4.07;;;;;;;2.29;93.32;99473.38;4359880;32;35137;-79
2022/04/10 04:48:56;;;;;;;6.43;3.67;;;;;;;2.51;91.33;99474.06;4359539;32;34329;-78
2022/04/10 04:52:00;;;;;;;5.75;3.12;;;;;;;2.30;92.11;99480.41;4359335;32;35161;-78
2022/04/10 04:55:06;;;;;;;8.40;4.12;;;;;;;2.39;92.71;99476.13;4370019;32;34671;-78
2022/04/10 04:58:11;;;;;;;6.45;3.55;;;;;;;2.56;91.76;99479.50;4349266;32;34931;-78
2022/04/10 05:01:16;;;;;;;6.53;3.72;;;;;;;2.85;90.32;99489.91;4359090;32;34416;-79
2022/04/10 05:04:23;;;;;;;7.20;3.87;;;;;;;2.52;90.28;99494.59;4359190;32;34098;-78
2022/04/10 05:07:28;;;;;;;6.03;3.55;;;;;;;2.58;91.82;99498.16;4358994;32;35542;-79
2022/04/10 05:10:34;;;;;;;5.70;3.40;;;;;;;2.61;91.04;99503.84;4370316;32;34577;-78
2022/04/10 05:13:41;;;;;;;6.25;3.42;;;;;;;2.58;91.00;99509.78;4366221;32;34563;-79
2022/04/10 05:16:46;;;;;;;6.45;3.40;;;;;;;2.80;89.86;99511.53;4363812;32;35010;-80
2022/04/10 05:19:51;;;;;;;6.82;3.58;;;;;;;2.58;89.82;99515.19;4354197;32;34313;-79
2022/04/10 05:22:57;;;;;;;6.45;3.45;;;;;;;2.72;89.17;99514.75;4368133;32;36204;-79
2022/04/10 05:26:03;;;;;;;7.82;3.65;;;;;;;2.85;88.22;99508.88;4359204;32;35591;-78
2022/04/10 05:29:08;;;;;;;5.78;3.72;;;;;;;2.67;88.01;99524.44;4377118;32;34166;-79
2022/04/10 05:32:16;;;;;;;5.57;3.50;;;;;;;2.75;87.81;99525.03;4352010;32;34146;-78
2022/04/10 05:35:21;;;;;;;6.40;3.42;;;;;;;3.06;86.38;99526.00;4353609;32;34989;-79
2022/04/10 05:38:27;;;;;;;6.80;3.78;;;;;;;2.91;88.22;99529.47;4362221;32;35468;-79
2022/04/10 05:41:32;;;;;;;6.18;3.67;;;;;;;3.23;87.35;99525.81;4361441;32;35022;-79
2022/04/10 05:44:37;;;;;;;6.65;3.47;;;;;;;3.13;87.41;99537.38;4380431;32;35473;-78
2022/04/10 05:47:44;;;;;;;5.80;3.35;;;;;;;3.35;84.97;99545.34;4365553;32;36015;-78
2022/04/10 05:50:49;;;;;;;7.57;3.70;;;;;;;3.03;85.48;99548.19;4358806;32;34610;-78
2022/04/10 05:53:55;;;;;;;7.47;3.78;;;;;;;3.19;85.65;99549.88;4362373;32;34174;-78
2022/04/10 05:57:01;;;;;;;6.37;3.60;;;;;;;3.26;84.96;99541.50;4368136;32;34569;-78
2022/04/10 06:00:13;;;;;;;6.18;3.47;;;;;;;3.11;85.68;99548.50;4368767;32;34533;-78
2022/04/10 06:03:19;;;;;;;6.60;3.53;;;;;;;3.21;84.75;99560.44;4374600;32;35523;-78
2022/04/10 06:06:25;;;;;;;6.18;3.47;;;;;;;3.44;83.40;99554.56;4365224;32;34195;-78
2022/04/10 06:09:31;;;;;;;6.28;3.33;;;;;;;3.58;84.26;99561.13;4375913;32;34656;-78
2022/04/10 06:12:37;;;;;;;9.15;3.83;;;;;;;3.63;83.16;99557.63;4360584;32;34973;-78
2022/04/10 06:15:39;;;;;;;6.05;3.78;;;;;;;3.66;83.10;99572.53;4358939;32;36077;-78
2022/04/10 06:18:25;;;;;;;6.57;3.65;;;;;;;3.46;83.07;99568.66;4359256;32;34953;-77
2022/04/10 06:21:12;;;;;;;5.40;3.45;;;;;;;3.70;82.55;99565.47;4367294;32;35510;-79
2022/04/10 06:23:59;;;;;;;7.30;3.78;;;;;;;3.83;81.59;99567.69;4365657;32;36046;-78
2022/04/10 06:26:48;;;;;;;5.87;3.53;;;;;;;3.92;80.13;99571.50;4356760;32;34745;-79
2022/04/10 06:29:36;;;;;;;5.78;3.45;;;;;;;3.83;80.83;99573.09;4359425;32;34301;-80
2022/04/10 06:32:22;;;;;;;6.32;3.70;;;;;;;4.27;79.57;99572.63;4369705;32;34623;-79
2022/04/10 06:35:10;;;;;;;6.62;3.60;;;;;;;4.23;78.75;99582.37;4356432;32;35064;-78
2022/04/10 06:37:59;;;;;;;6.07;3.85;;;;;;;4.66;77.93;99585.62;4365114;32;35335;-78
2022/04/10 06:40:47;;;;;;;6.43;3.50;;;;;;;4.77;76.45;99575.56;4368439;32;35067;-77
2022/04/10 06:43:34;;;;;;;6.53;3.80;;;;;;;4.85;77.22;99589.41;4367051;32;34559;-78
2022/04/10 06:46:21;;;;;;;5.35;3.60;;;;;;;4.56;76.61;99586.44;4368575;32;34668;-78
2022/04/10 06:49:12;;;;;;;6.10;3.47;;;;;;;4.52;76.62;99596.22;4370394;32;34118;-77
2022/04/10 06:52:00;;;;;;;4.90;3.60;;;;;;;4.87;75.85;99597.28;4370675;32;34314;-77
2022/04/10 06:54:47;;;;;;;6.68;3.45;;;;;;;4.80;74.97;99599.44;4358637;32;34789;-78
2022/04/10 06:57:34;;;;;;;5.72;3.72;;;;;;;5.10;74.87;99595.88;4365959;32;33896;-78
2022/04/10 07:00:22;;;;;;;6.22;3.40;;;;;;;5.29;72.95;99607.75;4365717;32;34590;-77
2022/04/10 07:03:09;;;;;;;5.80;3.35;;;;;;;5.22;73.91;99626.25;4351307;32;34167;-77
2022/04/10 07:05:57;;;;;;;6.05;3.90;;;;;;;5.41;73.12;99621.03;4364453;32;34592;-77
2022/04/10 07:08:44;;;;;;;5.47;3.42;;;;;;;5.03;73.38;99617.06;4376369;32;35320;-77
2022/04/10 07:11:31;;;;;;;5.05;3.72;;;;;;;5.09;73.81;99615.94;4376542;32;34565;-75
2022/04/10 07:14:19;;;;;;;5.97;3.37;;;;;;;5.07;73.11;99612.72;4368369;32;34267;-74
2022/04/10 07:17:06;;;;;;;5.28;3.20;;;;;;;5.26;72.26;99621.88;4365334;32;34599;-75
2022/04/10 07:19:52;;;;;;;6.25;3.90;;;;;;;5.68;72.56;99623.38;4341500;32;34994;-75
2022/04/10 07:25:44;;;;;;;6.53;3.53;;;;;;;6.20;70.34;99635.59;4367679;32;34987;-76
2022/04/10 07:28:31;;;;;;;5.22;3.37;;;;;;;6.18;70.73;99631.56;4363472;32;35201;-76
2022/04/10 07:31:19;;;;;;;5.18;3.22;;;;;;;6.21;69.74;99620.94;4363139;32;35630;-76
2022/04/10 07:34:05;;;;;;;5.95;3.42;;;;;;;6.18;69.83;99632.38;4372567;32;34659;-77
2022/04/10 07:36:53;;;;;;;5.00;3.08;;;;;;;6.09;67.12;99636.81;4369785;32;35119;-75
2022/04/10 07:39:39;;;;;;;6.68;3.42;;;;;;;6.10;68.64;99638.41;4354178;32;34645;-76
2022/04/10 07:42:27;;;;;;;3.60;2.40;;;;;;;6.48;68.84;99641.41;4374898;32;34947;-76
2022/04/10 07:48:37;;;;;;;4.40;2.62;;;;;;;6.37;62.44;99646.12;4360980;32;35157;-77
2022/04/10 07:51:25;;;;;;;4.62;2.75;;;;;;;6.03;62.76;99646.06;4367654;32;34624;-76
2022/04/10 07:54:12;;;;;;;3.42;2.12;;;;;;;6.25;63.88;99638.31;4366065;32;36046;-76
2022/04/10 07:56:59;;;;;;;3.50;2.40;;;;;;;6.59;61.84;99648.41;4354871;32;35483;-75
2022/04/10 07:59:45;;;;;;;4.57;2.47;;;;;;;6.43;61.61;99657.78;4382242;32;35157;-75
2022/04/10 08:02:33;;;;;;;7.30;3.45;;;;;;;6.42;62.40;99658.87;4372769;32;34622;-75
2022/04/10 08:05:20;;;;;;;4.78;2.75;;;;;;;7.05;65.15;99677.97;4368922;32;35129;-75
2022/04/10 08:08:06;;;;;;;4.53;2.40;;;;;;;7.00;64.33;99678.00;4345261;32;35009;-75
2022/04/10 08:10:53;;;;;;;4.45;3.10;;;;;;;7.07;61.38;99664.09;4353351;32;34105;-76
2022/04/10 08:13:40;;;;;;;4.68;2.95;;;;;;;7.56;64.11;99668.47;4368802;32;34587;-76
2022/04/10 08:16:26;;;;;;;4.60;3.20;;;;;;;7.82;63.93;99668.97;4371485;32;34615;-76
2022/04/10 08:19:13;;;;;;;5.32;3.20;;;;;;;7.21;63.71;99671.28;4353010;32;34616;-75
2022/04/10 08:21:59;;;;;;;4.75;2.95;;;;;;;7.26;63.67;99672.31;4361506;32;33784;-76
2022/04/10 08:24:45;;;;;;;3.97;2.62;;;;;;;7.20;61.88;99675.13;4369584;32;35506;-75
2022/04/10 08:27:31;;;;;;;4.65;2.62;;;;;;;7.22;60.52;99664.72;4372786;32;35841;-75
2022/04/10 08:30:18;;;;;;;5.12;2.50;;;;;;;7.79;60.29;99659.47;4376958;32;34553;-76
2022/04/10 08:33:04;;;;;;;3.42;2.47;;;;;;;7.78;59.96;99673.41;4349537;32;35129;-75
2022/04/10 08:35:50;;;;;;;3.72;2.50;;;;;;;7.88;58.77;99665.06;4361009;32;35546;-77
2022/04/10 08:38:36;;;;;;;6.53;2.53;;;;;;;7.95;57.96;99670.19;4369715;32;35057;-76
2022/04/10 08:41:29;;;;;;;3.00;2.20;;;;;;;7.61;57.49;99662.97;4385786;32;35411;-75
2022/04/10 08:44:16;;;;;;;3.97;2.58;;;;;;;7.83;58.17;99671.41;4358862;32;35150;-76
2022/04/10 08:47:03;;;;;;;4.45;2.25;;;;;;;8.02;55.81;99681.53;4359974;32;34557;-76
2022/04/10 08:49:50;;;;;;;2.60;1.87;;;;;;;7.81;57.31;99668.16;4376698;32;34971;-75
2022/04/10 08:52:37;;;;;;;2.87;1.90;;;;;;;7.96;55.25;99663.63;4352116;32;34550;-75
2022/04/10 08:55:25;;;;;;;4.65;1.95;;;;;;;7.43;55.16;99687.16;4369570;32;35006;-75
2022/04/10 08:58:11;;;;;;;4.53;2.00;;;;;;;7.78;55.33;99678.84;4362851;32;35510;-75
2022/04/10 09:00:57;;;;;;;3.55;2.17;;;;;;;7.99;55.42;99685.66;4364437;32;34825;-77
2022/04/10 09:03:46;;;;;;;3.20;2.10;;;;;;;7.99;54.09;99680.22;4359197;32;35366;-76
2022/04/10 09:06:33;;;;;;;4.22;2.28;;;;;;;7.96;55.19;99672.63;4365080;32;34164;-77
2022/04/10 09:09:19;;;;;;;3.67;2.10;;;;;;;8.26;54.89;99679.59;4374105;32;34611;-77
2022/04/10 09:12:10;;;;;;;;;;;;;;;7.56;54.49;99693.00;4375117;32;35055;-76
2022/04/10 09:15:06;;;;;;;3.28;2.05;;;;;;;8.19;54.48;99675.59;4352319;32;35662;-76
2022/04/10 09:17:56;;;;;;;5.05;2.42;;;;;;;8.51;54.23;99678.44;4359255;32;34181;-77
2022/04/10 09:20:41;;;;;;;4.47;2.35;;;;;;;7.73;54.70;99687.09;4365708;32;35645;-79
2022/04/10 09:23:28;;;;;;;3.58;2.17;;;;;;;8.15;54.97;99682.75;4375024;32;35185;-80
2022/04/10 09:26:13;;;;;;;5.72;2.90;;;;;;;8.13;53.99;99671.31;4374448;32;35510;-79
2022/04/10 09:29:03;;;;;;;3.05;2.12;;;;;;;8.51;53.32;99697.56;4347729;32;34158;-81
2022/04/10 09:31:50;;;;;;;4.28;2.37;;;;;;;8.35;53.42;99671.53;4368799;32;34109;-77
2022/04/10 09:34:37;;;;;;;2.90;1.98;;;;;;;8.20;52.02;99675.31;4370252;32;34940;-78
2022/04/10 09:37:54;;;;;;;2.83;1.70;;;;;;;8.30;52.84;99679.81;4368788;32;35231;-78
2022/04/10 09:40:41;;;;;;;5.93;1.85;;;;;;;8.69;50.76;99685.00;4362533;32;34069;-79
2022/04/10 09:43:28;;;;;;;3.28;1.73;;;;;;;8.63;52.49;99685.38;4364161;32;35626;-79
2022/04/10 09:46:15;;;;;;;3.62;1.70;;;;;;;7.98;53.29;99683.25;4368542;32;36005;-81
2022/04/10 09:49:05;;;;;;;2.92;1.48;;;;;;;8.44;51.73;99699.84;4379527;32;34558;-81
2022/04/10 09:52:11;;;;;;;3.10;2.03;;;;;;;8.40;50.32;99684.34;4372241;32;35087;-80
2022/04/10 09:54:57;;;;;;;3.78;1.60;;;;;;;8.43;51.05;99694.69;4368540;32;34875;-80
2022/04/10 09:57:52;;;;;;;2.65;1.60;;;;;;;8.47;51.27;99682.06;4365148;32;35033;-81
2022/04/10 10:00:40;;;;;;;5.00;2.25;;;;;;;8.93;50.72;99689.53;4370235;32;34860;-81
2022/04/10 10:03:28;;;;;;;2.67;1.85;;;;;;;8.93;50.76;99693.06;4366706;32;35040;-80
2022/04/10 10:06:15;;;;;;;4.05;1.70;;;;;;;9.10;51.49;99691.69;4350118;32;34316;-80
2022/04/10 10:09:03;;;;;;;3.08;1.50;;;;;;;9.30;47.73;99691.34;4351589;32;34954;-78
2022/04/10 10:11:49;;;;;;;3.80;1.87;;;;;;;8.69;48.34;99692.38;4368269;32;35505;-79
2022/04/10 10:14:37;;;;;;;2.00;1.20;;;;;;;8.74;48.60;99678.66;4365732;32;35624;-80
2022/04/10 10:17:23;;;;;;;2.90;1.40;;;;;;;9.00;50.42;99695.44;4361650;32;34652;-79
2022/04/10 10:20:11;;;;;;;4.93;2.00;;;;;;;9.41;48.67;99679.09;4364853;32;34996;-77
2022/04/10 10:23:01;;;;;;;3.15;1.77;;;;;;;9.98;48.87;99692.47;4345214;32;34587;-78
2022/04/10 10:25:54;;;;;;;3.25;1.77;;;;;;;9.31;49.17;99690.25;4371043;32;34088;-81
2022/04/10 10:29:01;;;;;;;4.10;1.85;;;;;;;9.51;47.88;99688.25;4336243;32;35555;-80
2022/04/10 10:32:03;;;;;;;3.17;2.05;;;;;;;9.15;49.04;99691.62;4354196;32;36011;-79
2022/04/10 10:34:51;;;;;;;3.47;2.17;;;;;;;9.18;50.83;99694.56;4371879;32;35191;-79
2022/04/10 10:37:53;;;;;;;5.47;2.12;;;;;;;9.22;49.98;99683.81;4367486;32;34124;-80
2022/04/10 10:40:39;;;;;;;4.32;2.40;;;;;;;9.30;50.06;99693.25;4351628;32;34242;-79
2022/04/10 10:43:25;;;;;;;3.97;2.50;;;;;;;8.93;51.18;99694.97;4366690;32;34540;-79
2022/04/10 10:46:32;;;;;;;2.12;1.65;;;;;;;8.54;52.03;99694.22;4340629;32;33469;-79
2022/04/10 10:49:19;;;;;;;2.75;1.80;;;;;;;9.14;48.32;99681.81;4362806;32;34237;-81
2022/04/10 10:52:09;;;;;;;3.78;1.95;;;;;;;9.08;49.16;99685.72;4359428;32;35506;-79
2022/04/10 10:54:58;;;;;;;2.87;1.70;;;;;;;8.96;49.25;99689.72;4356229;32;35853;-79
2022/04/10 10:57:44;;;;;;;4.43;2.20;;;;;;;8.87;48.37;99691.53;4361568;32;34270;-79
2022/04/10 11:00:36;;;;;;;2.58;1.80;;;;;;;9.22;48.31;99678.34;4354260;32;34191;-80
2022/04/10 11:03:22;;;;;;;4.10;2.05;;;;;;;9.10;48.49;99686.22;4360340;32;34277;-79
2022/04/10 11:06:14;;;;;;;3.15;1.60;;;;;;;9.05;49.32;99667.19;4359967;32;34583;-79
2022/04/10 11:09:19;;;;;;;;;;;;;;;8.73;49.04;99682.47;4338839;32;35412;-80
2022/04/10 11:12:12;;;;;;;3.22;1.27;;;;;;;9.41;49.66;99689.22;4368078;32;34905;-80
2022/04/10 11:15:18;;;;;;;2.85;1.70;;;;;;;9.42;46.47;99686.22;4358938;32;35157;-80
2022/04/10 11:18:23;;;;;;;2.03;1.30;;;;;;;9.32;47.34;99689.13;4349111;32;34664;-80
2022/04/10 11:21:16;;;;;;;2.62;1.02;;;;;;;8.88;48.25;99684.97;4362998;32;34104;-80
2022/04/10 11:24:22;;;;;;;1.60;1.05;;;;;;;9.28;45.83;99671.72;4350143;32;34107;-80
2022/04/10 11:27:12;;;;;;;3.35;0.95;;;;;;;9.12;44.56;99675.81;4356533;32;34140;-82
2022/04/10 11:30:04;;;;;;;1.58;0.90;;;;;;;9.80;44.01;99698.88;4346850;32;34877;-81
2022/04/10 11:32:59;;;;;;;2.03;1.00;;;;;;;9.90;42.37;99685.81;4359992;32;35066;-79
2022/04/10 11:35:56;;;;;;;3.67;1.20;;;;;;;9.58;42.20;99674.97;4362264;32;34106;-81
2022/04/10 11:39:08;;;;;;;2.10;0.90;;;;;;;10.01;40.40;99671.91;4356697;32;35014;-80
2022/04/10 11:42:03;;;;;;;2.60;0.80;;;;;;;10.28;41.40;99671.09;4361164;32;34681;-81
2022/04/10 11:44:49;;;;;;;2.20;0.90;;;;;;;9.50;42.09;99678.41;4371643;32;34208;-80
2022/04/10 11:47:39;;;;;;;2.15;0.62;;;;;;;9.75;42.26;99668.88;4363840;32;35136;-80
2022/04/10 11:50:27;;;;;;;2.80;0.75;;;;;;;10.22;39.52;99664.06;4359644;32;35471;-81
2022/04/10 11:53:14;;;;;;;3.60;0.70;;;;;;;10.16;39.22;99666.13;4357583;32;35053;-80
2022/04/10 11:55:59;;;;;;;2.30;0.62;;;;;;;10.47;37.69;99681.87;4360520;32;34682;-80
2022/04/10 11:58:46;;;;;;;2.78;0.93;;;;;;;10.49;37.60;99653.06;4380825;32;34294;-80
2022/04/10 12:01:34;;;;;;;1.67;0.85;;;;;;;10.02;40.40;99671.59;4363377;32;34620;-79
2022/04/10 12:04:20;;;;;;;2.08;1.20;;;;;;;10.16;40.89;99671.59;4362701;32;34989;-79
2022/04/10 12:07:18;;;;;;;1.52;0.73;;;;;;;10.19;40.14;99681.94;4358893;32;34158;-80
2022/04/10 12:10:06;;;;;;;2.12;0.70;;;;;;;10.23;39.14;99685.66;4347109;32;35545;-80
2022/04/10 12:12:52;;;;;;;1.37;0.62;;;;;;;10.12;39.76;99695.22;4348123;32;35465;-79
2022/04/10 12:15:40;;;;;;;2.40;0.70;;;;;;;10.04;40.07;99674.84;4347021;32;35686;-78
2022/04/10 12:18:27;;;;;;;3.03;0.90;;;;;;;10.03;40.54;99683.38;4369009;32;35434;-80
2022/04/10 12:21:14;;;;;;;2.83;1.10;;;;;;;10.25;37.78;99688.91;4363090;32;34129;-79
2022/04/10 12:24:04;;;;;;;1.17;0.62;;;;;;;10.07;37.02;99682.44;4360731;32;34618;-79
2022/04/10 12:26:53;;;;;;;2.83;0.90;;;;;;;10.37;37.75;99691.13;4371215;32;35938;-79
2022/04/10 12:29:40;;;;;;;1.50;0.77;;;;;;;10.45;38.17;99695.09;4348158;32;35139;-79
2022/04/10 12:32:27;;;;;;;1.33;0.77;;;;;;;10.11;38.82;99690.84;4364831;32;34682;-79
2022/04/10 12:35:14;;;;;;;1.55;0.75;;;;;;;10.11;40.64;99688.13;4370935;32;34605;-79
2022/04/10 12:38:02;;;;;;;1.12;0.80;;;;;;;9.45;40.43;99671.94;4352700;32;234366;-80
2022/04/10 12:40:48;;;;;;;1.80;0.62;;;;;;;9.17;40.79;99686.66;4355315;32;34528;-80
2022/04/10 12:43:34;;;;;;;1.98;0.80;;;;;;;9.70;41.28;99683.47;4358471;32;33837;-77
2022/04/10 12:46:20;;;;;;;1.30;0.90;;;;;;;10.30;40.89;99675.13;4358603;32;34643;-79
2022/04/10 12:49:17;;;;;;;1.35;0.90;;;;;;;10.59;38.34;99676.69;4356200;32;35136;-77
2022/04/10 12:52:04;;;;;;;2.15;0.93;;;;;;;10.49;36.14;99665.94;4343692;32;34650;-77
2022/04/10 12:54:52;;;;;;;1.60;1.17;;;;;;;10.73;37.18;99677.44;4358286;32;34262;-78
2022/04/10 12:57:37;;;;;;;3.25;0.95;;;;;;;10.49;38.89;99677.69;4357594;32;34728;-76
2022/04/10 13:00:29;;;;;;;2.33;0.90;;;;;;;10.29;37.96;99678.97;4346871;32;35573;-77
2022/04/10 13:03:26;;;;;;;1.40;0.75;;;;;;;10.41;38.07;99677.62;4350706;32;34657;-76
2022/04/10 13:06:15;;;;;;;1.33;0.88;;;;;;;10.45;37.69;99681.37;4357848;32;34122;-77
2022/04/10 13:09:12;;;;;;;2.17;1.20;;;;;;;10.38;37.02;99675.50;4347108;32;35079;-76
2022/04/10 13:12:00;;;;;;;3.60;1.40;;;;;;;10.45;36.95;99675.91;4367942;32;35919;-77
2022/04/10 13:14:51;;;;;;;2.87;1.40;;;;;;;10.09;39.53;99674.72;4356586;32;35009;-77
2022/04/10 13:17:40;;;;;;;1.85;1.08;;;;;;;9.94;41.50;99718.06;4358500;32;35012;-78
2022/04/10 13:20:27;;;;;;;1.52;0.93;;;;;;;10.49;39.50;99679.63;4339592;32;34161;-78
2022/04/10 13:23:13;;;;;;;1.85;0.88;;;;;;;10.00;38.04;99695.72;4346284;32;34917;-78
2022/04/10 13:25:59;;;;;;;1.48;0.90;;;;;;;10.79;36.29;99686.34;4356529;32;34126;-78
2022/04/10 13:28:46;;;;;;;2.90;1.00;;;;;;;10.68;34.91;99679.47;4353192;32;34125;-78
2022/04/10 13:31:32;;;;;;;2.25;1.10;;;;;;;10.97;34.98;99692.75;4355248;32;34350;-78
2022/04/10 13:34:20;;;;;;;2.33;1.20;;;;;;;11.21;34.11;99698.72;4338778;32;35014;-77
2022/04/10 13:37:06;;;;;;;2.95;1.10;;;;;;;10.80;35.58;99699.72;4354490;32;34201;-78
2022/04/10 13:39:53;;;;;;;2.83;1.73;;;;;;;10.83;37.00;99689.25;4355062;32;35048;-76
2022/04/10 13:42:40;;;;;;;2.45;1.40;;;;;;;10.10;36.37;99692.78;4349012;32;34750;-79
2022/04/10 13:45:27;;;;;;;2.37;1.65;;;;;;;10.31;36.69;99698.66;4372378;32;34750;-78
2022/04/10 13:48:19;;;;;;;3.67;1.42;;;;;;;10.04;36.42;99698.66;4362879;32;34088;-78